createdAt,value
2023-01-22T00:01:46.759Z,15.70
2023-01-22T00:11:51.843Z,13.07
2023-01-22T00:21:53.418Z,12.43
2023-01-22T00:31:55.080Z,11.07
2023-01-22T00:41:56.667Z,12.23
2023-01-22T00:51:58.154Z,12.13
2023-01-22T01:01:59.749Z,11.75
2023-01-22T01:12:01.276Z,13.33
2023-01-22T01:22:02.790Z,14.17
2023-01-22T01:32:04.541Z,13.23
2023-01-22T01:42:06.106Z,11.67
2023-01-22T01:52:12.837Z,12.03
2023-01-22T02:02:15.473Z,14.68
2023-01-22T02:12:17.066Z,12.73
2023-01-22T02:22:25.541Z,11.47
2023-01-22T02:32:27.142Z,13.55
2023-01-22T02:42:28.686Z,19.17
2023-01-22T02:52:30.250Z,13.97
2023-01-22T03:02:31.867Z,12.85
2023-01-22T03:12:33.445Z,13.30
2023-01-22T03:22:35.052Z,14.03
2023-01-22T03:32:36.580Z,11.00
2023-01-22T03:42:38.106Z,10.30
2023-01-22T03:52:39.620Z,10.83
2023-01-22T04:02:41.143Z,9.65
2023-01-22T04:12:42.719Z,10.83
2023-01-22T04:22:44.427Z,11.53
2023-01-22T04:32:45.969Z,10.48
2023-01-22T04:42:47.534Z,10.37
2023-01-22T04:52:52.795Z,8.43
2023-01-22T05:02:59.271Z,5.68
2023-01-22T05:13:03.266Z,6.80
2023-01-22T05:23:04.803Z,7.43
2023-01-22T05:33:06.325Z,7.97
2023-01-22T05:43:07.826Z,6.80
2023-01-22T05:53:09.382Z,8.17
2023-01-22T06:03:10.944Z,7.30
2023-01-22T06:13:12.470Z,6.28
2023-01-22T06:23:14.332Z,5.47
2023-01-22T06:33:15.987Z,5.53
2023-01-22T06:43:17.564Z,6.60
2023-01-22T06:53:19.067Z,5.03
2023-01-22T07:03:20.638Z,6.43
2023-01-22T07:13:23.472Z,5.70
2023-01-22T07:23:25.010Z,5.70
2023-01-22T07:33:26.580Z,6.70
2023-01-22T07:43:28.604Z,6.37
2023-01-22T07:53:30.423Z,7.25
2023-01-22T08:03:31.917Z,7.63
2023-01-22T08:13:33.469Z,8.63
2023-01-22T08:23:35.015Z,7.15
2023-01-22T08:33:36.578Z,8.07
2023-01-22T08:43:38.124Z,7.17
2023-01-22T08:53:39.652Z,9.98
2023-01-22T09:03:41.243Z,7.03
2023-01-22T09:13:42.807Z,5.07
2023-01-22T09:23:44.484Z,4.50
2023-01-22T09:33:46.025Z,4.00
2023-01-22T09:43:52.105Z,5.07
2023-01-22T09:53:58.119Z,4.73
2023-01-22T10:04:05.423Z,4.20
2023-01-22T10:14:12.265Z,4.93
2023-01-22T10:24:13.811Z,4.85
2023-01-22T10:34:41.790Z,4.50
2023-01-22T10:44:43.559Z,6.00
2023-01-22T10:54:53.720Z,7.65
2023-01-22T11:04:55.442Z,4.93
2023-01-22T11:15:03.975Z,3.63
2023-01-22T11:25:10.348Z,5.23
2023-01-22T11:35:27.310Z,4.37
2023-01-22T11:45:44.687Z,7.18
2023-01-22T11:56:10.683Z,7.87
2023-01-22T12:06:44.285Z,8.80
2023-01-22T12:16:53.922Z,8.88
2023-01-22T12:27:07.118Z,5.20
2023-01-22T12:37:13.774Z,5.87
2023-01-22T12:47:25.107Z,5.27
2023-01-22T12:57:37.854Z,8.13
2023-01-22T13:07:40.746Z,3.88
2023-01-22T13:17:43.402Z,6.70
2023-01-22T13:27:46.191Z,8.20
2023-01-22T13:37:51.480Z,9.60
2023-01-22T13:47:58.871Z,6.17
2023-01-22T13:58:00.410Z,6.10
2023-01-22T14:08:10.916Z,8.02
2023-01-22T14:18:16.120Z,9.20
2023-01-22T14:28:18.524Z,8.50
2023-01-22T14:38:20.252Z,7.47
2023-01-22T14:48:22.199Z,10.27
2023-01-22T14:58:23.695Z,8.65
2023-01-22T15:08:25.291Z,9.47
2023-01-22T15:18:26.825Z,9.00
2023-01-22T15:28:28.542Z,9.02
2023-01-22T15:38:30.363Z,8.93
2023-01-22T15:48:31.862Z,9.13
2023-01-22T15:58:33.993Z,7.82
2023-01-22T16:08:35.595Z,12.00
2023-01-22T16:18:37.139Z,11.13
2023-01-22T16:28:39.365Z,8.48
2023-01-22T16:38:41.841Z,11.00
2023-01-22T16:48:44.099Z,13.83
2023-01-22T16:58:45.705Z,13.63
2023-01-22T17:08:47.467Z,11.43
2023-01-22T17:18:48.977Z,15.77
2023-01-22T17:28:50.588Z,9.90
2023-01-22T17:38:52.379Z,7.00
2023-01-22T17:48:54.710Z,10.60
2023-01-22T17:58:59.248Z,8.93
2023-01-22T18:09:00.938Z,10.60
2023-01-22T18:19:03.459Z,11.73
2023-01-22T18:29:05.385Z,12.00
2023-01-22T18:39:10.444Z,11.93
2023-01-22T18:49:16.202Z,11.77
2023-01-22T18:59:18.561Z,12.93
2023-01-22T19:09:20.607Z,11.97
2023-01-22T19:19:25.485Z,14.07
2023-01-22T19:29:27.377Z,13.07
2023-01-22T19:39:29.547Z,15.70
2023-01-22T19:49:31.779Z,14.70
2023-01-22T19:59:33.291Z,13.43
2023-01-22T20:09:37.732Z,14.53
2023-01-22T20:19:39.564Z,19.00
2023-01-22T20:29:41.143Z,14.48
2023-01-22T20:39:42.681Z,13.60
2023-01-22T20:49:44.323Z,14.97
2023-01-22T20:59:45.835Z,15.48
2023-01-22T21:09:47.426Z,14.10
2023-01-22T21:19:49.028Z,11.50
2023-01-22T21:29:50.608Z,13.18
2023-01-22T21:39:52.161Z,13.87
2023-01-22T21:49:53.780Z,11.07
2023-01-22T21:59:55.334Z,12.77
2023-01-22T22:09:56.887Z,12.23
2023-01-22T22:19:58.391Z,14.80
2023-01-22T22:29:59.964Z,10.40
2023-01-22T22:40:01.593Z,11.70
2023-01-22T22:50:04.888Z,12.73
2023-01-22T23:00:11.027Z,12.75
2023-01-22T23:10:12.574Z,11.47
2023-01-22T23:20:14.142Z,13.17
2023-01-22T23:30:16.025Z,14.95
2023-01-22T23:40:17.752Z,13.93
2023-01-22T23:50:19.881Z,13.27
